createdAt,value
2023-09-25T00:00:34.491Z,100.00
2023-09-25T00:03:03.821Z,100.00
2023-09-25T00:05:31.230Z,100.00
2023-09-25T00:08:22.549Z,100.00
2023-09-25T00:10:56.469Z,100.00
2023-09-25T00:13:23.052Z,100.00
2023-09-25T00:15:49.968Z,100.00
2023-09-25T00:18:17.415Z,100.00
2023-09-25T00:21:02.456Z,100.00
2023-09-25T00:23:29.043Z,100.00
2023-09-25T00:26:06.003Z,100.00
2023-09-25T00:28:57.926Z,100.00
2023-09-25T00:31:24.521Z,100.00
2023-09-25T00:33:54.960Z,100.00
2023-09-25T00:36:21.717Z,100.00
2023-09-25T00:38:48.517Z,100.00
2023-09-25T00:41:15.313Z,100.00
2023-09-25T00:43:41.921Z,100.00
2023-09-25T00:46:08.479Z,100.00
2023-09-25T00:48:35.540Z,100.00
2023-09-25T00:51:03.209Z,100.00
2023-09-25T00:53:30.989Z,100.00
2023-09-25T00:55:57.761Z,100.00
2023-09-25T00:58:25.833Z,100.00
2023-09-25T01:00:54.341Z,100.00
2023-09-25T01:03:21.309Z,100.00
2023-09-25T01:05:48.609Z,100.00
2023-09-25T01:08:15.321Z,100.00
2023-09-25T01:10:42.747Z,100.00
2023-09-25T01:13:11.303Z,100.00
2023-09-25T01:15:39.308Z,100.00
2023-09-25T01:18:06.328Z,100.00
2023-09-25T01:20:33.348Z,100.00
2023-09-25T01:23:00.004Z,100.00
2023-09-25T01:25:26.845Z,100.00
2023-09-25T01:27:59.689Z,100.00
2023-09-25T01:30:27.263Z,100.00
2023-09-25T01:32:54.693Z,100.00
2023-09-25T01:35:24.815Z,100.00
2023-09-25T01:37:55.554Z,100.00
2023-09-25T01:40:47.706Z,100.00
2023-09-25T01:43:14.406Z,100.00
2023-09-25T01:45:41.021Z,100.00
2023-09-25T01:48:07.911Z,100.00
2023-09-25T01:50:35.347Z,100.00
2023-09-25T01:53:02.426Z,100.00
2023-09-25T01:55:31.867Z,100.00
2023-09-25T01:57:58.991Z,100.00
2023-09-25T02:00:25.571Z,100.00
2023-09-25T02:02:52.305Z,100.00
2023-09-25T02:05:19.127Z,100.00
2023-09-25T02:07:45.822Z,100.00
2023-09-25T02:10:12.635Z,100.00
2023-09-25T02:12:39.426Z,100.00
2023-09-25T02:15:08.107Z,100.00
2023-09-25T02:17:35.366Z,100.00
2023-09-25T02:20:18.456Z,100.00
2023-09-25T02:22:47.920Z,100.00
2023-09-25T02:25:14.912Z,100.00
2023-09-25T02:27:41.689Z,100.00
2023-09-25T02:30:09.635Z,100.00
2023-09-25T02:32:40.497Z,100.00
2023-09-25T02:35:08.916Z,100.00
2023-09-25T02:37:37.775Z,100.00
2023-09-25T02:40:11.025Z,100.00
2023-09-25T02:42:43.765Z,100.00
2023-09-25T02:45:10.774Z,100.00
2023-09-25T02:47:38.011Z,100.00
2023-09-25T02:50:05.129Z,100.00
2023-09-25T02:52:32.088Z,100.00
2023-09-25T02:54:58.679Z,100.00
2023-09-25T02:57:25.923Z,100.00
2023-09-25T02:59:52.615Z,100.00
2023-09-25T03:02:20.301Z,100.00
2023-09-25T03:04:46.972Z,100.00
2023-09-25T03:07:13.584Z,100.00
2023-09-25T03:09:40.254Z,100.00
2023-09-25T03:12:07.162Z,100.00
2023-09-25T03:15:02.656Z,100.00
2023-09-25T03:17:29.254Z,100.00
2023-09-25T03:19:56.838Z,100.00
2023-09-25T03:22:23.431Z,100.00
2023-09-25T03:24:50.221Z,100.00
2023-09-25T03:27:17.851Z,100.00
2023-09-25T03:29:45.745Z,100.00
2023-09-25T03:32:12.640Z,100.00
2023-09-25T03:34:39.773Z,100.00
2023-09-25T03:37:06.354Z,100.00
2023-09-25T03:39:33.124Z,100.00
2023-09-25T03:42:00.048Z,100.00
2023-09-25T03:44:26.729Z,100.00
2023-09-25T03:46:54.837Z,100.00
2023-09-25T03:49:21.541Z,100.00
2023-09-25T03:51:48.142Z,100.00
2023-09-25T03:54:17.769Z,100.00
2023-09-25T03:56:44.654Z,100.00
2023-09-25T03:59:12.353Z,100.00
2023-09-25T04:01:39.070Z,100.00
2023-09-25T04:04:07.962Z,100.00
2023-09-25T04:06:35.323Z,100.00
2023-09-25T04:09:01.966Z,100.00
2023-09-25T04:11:31.761Z,100.00
2023-09-25T04:13:58.347Z,100.00
2023-09-25T04:16:25.045Z,100.00
2023-09-25T04:18:52.043Z,100.00
2023-09-25T04:21:18.955Z,100.00
2023-09-25T04:23:45.808Z,100.00
2023-09-25T04:26:13.225Z,100.00
2023-09-25T04:28:41.542Z,100.00
2023-09-25T04:31:08.356Z,100.00
2023-09-25T04:33:36.617Z,100.00
2023-09-25T04:36:03.840Z,100.00
2023-09-25T04:38:31.527Z,100.00
2023-09-25T04:40:58.209Z,100.00
2023-09-25T04:43:24.933Z,100.00
2023-09-25T04:45:53.199Z,100.00
2023-09-25T04:48:20.436Z,100.00
2023-09-25T04:50:47.113Z,100.00
2023-09-25T04:53:14.955Z,100.00
2023-09-25T04:55:42.174Z,100.00
2023-09-25T04:58:09.248Z,100.00
2023-09-25T05:00:36.285Z,100.00
2023-09-25T05:03:03.156Z,100.00
2023-09-25T05:05:32.255Z,100.00
2023-09-25T05:07:58.872Z,100.00
2023-09-25T05:10:27.326Z,100.00
2023-09-25T05:12:55.571Z,100.00
2023-09-25T05:15:23.050Z,100.00
2023-09-25T05:17:50.310Z,100.00
2023-09-25T05:20:23.973Z,100.00
2023-09-25T05:22:53.298Z,100.00
2023-09-25T05:25:21.441Z,100.00
2023-09-25T05:27:53.512Z,100.00
2023-09-25T05:30:20.448Z,100.00
2023-09-25T05:32:49.440Z,100.00
2023-09-25T05:35:17.406Z,100.00
2023-09-25T05:37:46.769Z,100.00
2023-09-25T05:40:14.260Z,100.00
2023-09-25T05:42:43.849Z,100.00
2023-09-25T05:45:12.554Z,100.00
2023-09-25T05:47:42.815Z,100.00
2023-09-25T05:50:10.787Z,100.00
2023-09-25T05:52:40.935Z,100.00
2023-09-25T05:55:09.431Z,100.00
2023-09-25T05:57:36.401Z,100.00
2023-09-25T06:00:11.116Z,100.00
2023-09-25T06:02:39.508Z,100.00
2023-09-25T06:05:07.111Z,100.00
2023-09-25T06:07:34.478Z,100.00
2023-09-25T06:10:02.453Z,100.00
2023-09-25T06:12:29.151Z,100.00
2023-09-25T06:14:55.764Z,100.00
2023-09-25T06:17:22.605Z,100.00
2023-09-25T06:19:49.227Z,100.00
2023-09-25T06:22:15.808Z,100.00
2023-09-25T06:24:42.448Z,100.00
2023-09-25T06:27:12.120Z,100.00
2023-09-25T06:29:38.876Z,100.00
2023-09-25T06:32:05.577Z,100.00
2023-09-25T06:34:32.426Z,100.00
2023-09-25T06:36:59.280Z,100.00
2023-09-25T06:39:25.829Z,100.00
2023-09-25T06:41:52.612Z,100.00
2023-09-25T06:44:20.504Z,100.00
2023-09-25T06:46:47.842Z,100.00
2023-09-25T06:49:14.577Z,100.00
2023-09-25T06:51:41.264Z,100.00
2023-09-25T06:54:10.005Z,100.00
2023-09-25T06:56:36.860Z,100.00
2023-09-25T06:59:03.580Z,100.00
2023-09-25T07:01:31.311Z,100.00
2023-09-25T07:03:58.252Z,100.00
2023-09-25T07:06:25.127Z,100.00
2023-09-25T07:08:51.893Z,100.00
2023-09-25T07:11:21.552Z,100.00
2023-09-25T07:13:49.666Z,100.00
2023-09-25T07:16:16.685Z,100.00
2023-09-25T07:18:45.029Z,100.00
2023-09-25T07:21:11.829Z,100.00
2023-09-25T07:23:38.453Z,100.00
2023-09-25T07:26:09.800Z,100.00
2023-09-25T07:28:37.711Z,100.00
2023-09-25T07:31:06.963Z,100.00
2023-09-25T07:33:35.897Z,100.00
2023-09-25T07:36:06.527Z,100.00
2023-09-25T07:38:34.036Z,100.00
2023-09-25T07:41:02.252Z,100.00
2023-09-25T07:43:46.364Z,100.00
2023-09-25T07:46:20.549Z,100.00
2023-09-25T07:48:48.512Z,100.00
2023-09-25T07:51:15.440Z,100.00
2023-09-25T07:53:45.841Z,100.00
2023-09-25T07:56:13.131Z,100.00
2023-09-25T07:58:41.131Z,100.00
2023-09-25T08:01:10.169Z,100.00
2023-09-25T08:03:39.380Z,100.00
2023-09-25T08:06:06.845Z,100.00
2023-09-25T08:08:36.834Z,100.00
2023-09-25T08:11:04.078Z,97.18
2023-09-25T08:13:31.125Z,98.39
2023-09-25T08:16:07.682Z,96.35
2023-09-25T08:18:35.214Z,97.72
2023-09-25T08:21:01.973Z,97.52
2023-09-25T08:23:29.924Z,98.27
2023-09-25T08:25:56.729Z,95.59
2023-09-25T08:28:23.941Z,93.63
2023-09-25T08:30:50.664Z,95.06
2023-09-25T08:33:20.171Z,94.19
2023-09-25T08:35:46.700Z,92.00
2023-09-25T08:38:13.508Z,90.33
2023-09-25T08:40:48.233Z,92.05
2023-09-25T08:43:20.043Z,92.06
2023-09-25T08:45:49.863Z,91.85
2023-09-25T08:48:18.571Z,87.19
2023-09-25T08:50:46.538Z,86.72
2023-09-25T08:53:13.342Z,86.69
2023-09-25T08:55:40.685Z,86.64
2023-09-25T08:58:10.579Z,82.98
2023-09-25T09:00:39.166Z,86.39
2023-09-25T09:03:06.436Z,86.24
2023-09-25T09:05:33.047Z,86.10
2023-09-25T09:08:09.464Z,84.37
2023-09-25T09:10:38.681Z,83.12
2023-09-25T09:13:11.138Z,87.08
2023-09-25T09:15:39.873Z,82.10
2023-09-25T09:18:27.949Z,82.63
2023-09-25T09:20:55.914Z,80.28
2023-09-25T09:23:40.496Z,78.64
2023-09-25T09:26:08.691Z,83.97
2023-09-25T09:28:35.856Z,78.52
2023-09-25T09:31:04.024Z,77.37
2023-09-25T09:33:31.883Z,77.03
2023-09-25T09:35:58.508Z,77.67
2023-09-25T09:38:25.978Z,71.04
2023-09-25T09:40:52.543Z,75.06
2023-09-25T09:43:19.347Z,73.62
2023-09-25T09:45:48.828Z,74.59
2023-09-25T09:48:20.380Z,74.34
2023-09-25T09:50:50.649Z,73.50
2023-09-25T09:53:18.670Z,72.39
2023-09-25T09:55:46.000Z,73.68
2023-09-25T09:58:13.306Z,69.82
2023-09-25T10:00:40.412Z,71.32
2023-09-25T10:03:09.436Z,69.36
2023-09-25T10:05:46.120Z,66.92
2023-09-25T10:08:12.844Z,68.91
2023-09-25T10:10:43.098Z,67.73
2023-09-25T10:13:22.951Z,66.66
2023-09-25T10:15:54.397Z,66.63
2023-09-25T10:18:27.307Z,66.18
2023-09-25T10:21:03.000Z,66.69
2023-09-25T10:23:30.903Z,64.39
2023-09-25T10:26:03.422Z,66.12
2023-09-25T10:28:32.846Z,65.42
2023-09-25T10:31:00.091Z,62.40
2023-09-25T10:33:34.974Z,65.62
2023-09-25T10:36:04.904Z,64.04
2023-09-25T10:38:39.462Z,60.29
2023-09-25T10:41:07.991Z,62.04
2023-09-25T10:43:37.051Z,60.64
2023-09-25T10:46:04.587Z,62.62
2023-09-25T10:48:33.262Z,64.16
2023-09-25T10:51:00.042Z,60.43
2023-09-25T10:53:28.067Z,60.68
2023-09-25T10:55:55.088Z,65.28
2023-09-25T10:58:22.293Z,63.00
2023-09-25T11:00:51.423Z,62.14
2023-09-25T11:03:18.620Z,60.85
2023-09-25T11:05:45.982Z,61.19
2023-09-25T11:08:16.836Z,55.96
2023-09-25T11:10:44.679Z,61.03
2023-09-25T11:13:12.338Z,56.67
2023-09-25T11:15:40.442Z,56.13
2023-09-25T11:18:11.638Z,62.33
2023-09-25T11:20:40.001Z,61.97
2023-09-25T11:23:20.099Z,57.87
2023-09-25T11:25:50.073Z,58.98
2023-09-25T11:28:31.671Z,59.81
2023-09-25T11:30:58.327Z,58.05
2023-09-25T11:33:25.318Z,59.43
2023-09-25T11:35:54.433Z,55.81
2023-09-25T11:38:24.958Z,59.54
2023-09-25T11:40:52.460Z,57.88
2023-09-25T11:43:19.313Z,55.19
2023-09-25T11:45:46.069Z,57.03
2023-09-25T11:48:17.942Z,56.83
2023-09-25T11:50:44.970Z,58.71
2023-09-25T11:53:11.959Z,56.11
2023-09-25T11:55:39.471Z,56.41
2023-09-25T11:58:09.671Z,55.48
2023-09-25T12:00:36.361Z,55.31
2023-09-25T12:03:05.958Z,54.95
2023-09-25T12:05:32.601Z,53.68
2023-09-25T12:07:59.311Z,52.49
2023-09-25T12:10:26.150Z,51.98
2023-09-25T12:12:52.826Z,51.73
2023-09-25T12:15:19.626Z,52.21
2023-09-25T12:17:48.993Z,53.07
2023-09-25T12:20:17.123Z,50.27
2023-09-25T12:22:47.755Z,49.80
2023-09-25T12:25:17.557Z,55.00
2023-09-25T12:27:46.010Z,55.69
2023-09-25T12:30:16.982Z,55.04
2023-09-25T12:32:45.163Z,54.00
2023-09-25T12:35:19.574Z,53.60
2023-09-25T12:37:47.883Z,53.79
2023-09-25T12:40:16.683Z,49.74
2023-09-25T12:42:53.823Z,52.80
2023-09-25T12:45:22.701Z,51.87
2023-09-25T12:47:49.720Z,51.54
2023-09-25T12:50:16.428Z,51.66
2023-09-25T12:52:43.030Z,53.13
2023-09-25T12:55:10.419Z,50.97
2023-09-25T12:57:37.366Z,51.22
2023-09-25T13:00:05.903Z,49.19
2023-09-25T13:02:33.092Z,49.93
2023-09-25T13:05:00.336Z,50.71
2023-09-25T13:07:26.996Z,47.09
2023-09-25T13:09:53.692Z,48.20
2023-09-25T13:12:20.361Z,47.33
2023-09-25T13:14:46.953Z,49.40
2023-09-25T13:17:13.761Z,48.77
2023-09-25T13:19:43.297Z,48.66
2023-09-25T13:22:28.916Z,48.45
2023-09-25T13:24:59.630Z,49.07
2023-09-25T13:27:27.030Z,46.24
2023-09-25T13:29:53.755Z,47.06
2023-09-25T13:32:20.309Z,49.00
2023-09-25T13:34:47.021Z,44.42
2023-09-25T13:37:13.628Z,47.23
2023-09-25T13:39:41.054Z,45.77
2023-09-25T13:42:08.095Z,47.61
2023-09-25T13:44:35.368Z,47.05
2023-09-25T13:47:02.035Z,47.55
2023-09-25T13:49:28.828Z,46.97
2023-09-25T13:51:56.903Z,45.95
2023-09-25T13:54:23.672Z,45.37
2023-09-25T13:56:50.234Z,45.62
2023-09-25T13:59:18.503Z,47.33
2023-09-25T14:01:48.173Z,47.08
2023-09-25T14:04:15.234Z,46.24
2023-09-25T14:06:43.132Z,46.13
2023-09-25T14:09:10.506Z,47.83
2023-09-25T14:11:37.609Z,45.43
2023-09-25T14:14:04.526Z,47.36
2023-09-25T14:16:31.620Z,46.14
2023-09-25T14:18:58.383Z,45.94
2023-09-25T14:21:25.185Z,46.22
2023-09-25T14:23:52.115Z,47.28
2023-09-25T14:26:22.093Z,46.03
2023-09-25T14:28:48.712Z,47.82
2023-09-25T14:31:17.324Z,46.72
2023-09-25T14:33:45.202Z,48.61
2023-09-25T14:36:12.188Z,46.51
2023-09-25T14:38:38.809Z,46.52
2023-09-25T14:41:06.787Z,48.14
2023-09-25T14:43:33.499Z,46.44
2023-09-25T14:46:00.162Z,46.46
2023-09-25T14:48:27.659Z,46.04
2023-09-25T14:50:54.294Z,47.09
2023-09-25T14:53:21.078Z,46.86
2023-09-25T14:55:57.019Z,48.14
2023-09-25T14:58:24.498Z,46.86
2023-09-25T15:00:58.885Z,49.28
2023-09-25T15:03:28.076Z,45.61
2023-09-25T15:05:55.531Z,46.77
2023-09-25T15:08:26.718Z,46.20
2023-09-25T15:10:54.341Z,47.19
2023-09-25T15:13:21.333Z,46.19
2023-09-25T15:15:49.795Z,46.33
2023-09-25T15:18:17.568Z,46.13
2023-09-25T15:20:44.307Z,46.69
2023-09-25T15:23:10.972Z,46.62
2023-09-25T15:25:37.638Z,48.10
2023-09-25T15:28:04.842Z,46.18
2023-09-25T15:30:31.529Z,49.21
2023-09-25T15:32:58.275Z,47.05
2023-09-25T15:35:24.955Z,48.40
2023-09-25T15:37:51.563Z,49.99
2023-09-25T15:40:23.899Z,48.87
2023-09-25T15:42:52.507Z,49.44
2023-09-25T15:45:19.738Z,50.09
2023-09-25T15:47:46.383Z,50.97
2023-09-25T15:50:12.997Z,51.40
2023-09-25T15:52:39.565Z,50.54
2023-09-25T15:55:07.481Z,48.62
2023-09-25T15:57:34.253Z,50.81
2023-09-25T16:00:00.832Z,50.04
2023-09-25T16:02:27.454Z,51.27
2023-09-25T16:04:54.224Z,52.88
2023-09-25T16:07:20.906Z,53.19
2023-09-25T16:09:47.695Z,51.58
2023-09-25T16:12:14.436Z,53.42
2023-09-25T16:14:41.029Z,52.21
2023-09-25T16:17:07.642Z,52.89
2023-09-25T16:19:34.243Z,52.33
2023-09-25T16:22:02.624Z,49.95
2023-09-25T16:24:31.517Z,52.11
2023-09-25T16:26:58.150Z,53.59
2023-09-25T16:29:24.726Z,54.05
2023-09-25T16:31:52.303Z,55.86
2023-09-25T16:34:19.011Z,55.19
2023-09-25T16:36:45.745Z,56.66
2023-09-25T16:39:13.290Z,57.77
2023-09-25T16:41:39.968Z,57.47
2023-09-25T16:44:07.028Z,58.93
2023-09-25T16:46:35.146Z,56.91
2023-09-25T16:49:04.634Z,57.94
2023-09-25T16:51:31.326Z,57.76
2023-09-25T16:53:58.052Z,59.51
2023-09-25T16:56:24.681Z,60.98
2023-09-25T16:58:51.286Z,62.55
2023-09-25T17:01:19.079Z,63.48
2023-09-25T17:03:45.946Z,64.22
2023-09-25T17:06:12.728Z,65.34
2023-09-25T17:08:40.239Z,66.49
2023-09-25T17:11:07.216Z,68.68
2023-09-25T17:13:33.781Z,69.77
2023-09-25T17:16:07.383Z,69.16
2023-09-25T17:18:34.092Z,69.03
2023-09-25T17:21:00.724Z,70.82
2023-09-25T17:23:27.436Z,72.10
2023-09-25T17:25:54.004Z,73.22
2023-09-25T17:28:20.591Z,73.90
2023-09-25T17:31:02.764Z,74.94
2023-09-25T17:33:34.032Z,76.52
2023-09-25T17:36:00.774Z,76.96
2023-09-25T17:38:30.364Z,78.00
2023-09-25T17:40:56.902Z,79.09
2023-09-25T17:43:23.530Z,79.67
2023-09-25T17:45:50.248Z,80.38
2023-09-25T17:48:17.384Z,81.67
2023-09-25T17:50:53.052Z,82.44
2023-09-25T17:53:20.316Z,82.54
2023-09-25T17:55:48.787Z,83.05
2023-09-25T17:58:29.242Z,83.84
2023-09-25T18:00:58.257Z,84.92
2023-09-25T18:03:25.078Z,85.48
2023-09-25T18:05:51.708Z,85.69
2023-09-25T18:08:18.286Z,85.91
2023-09-25T18:10:44.812Z,86.63
2023-09-25T18:13:11.542Z,87.05
2023-09-25T18:15:38.348Z,87.96
2023-09-25T18:18:05.791Z,88.86
2023-09-25T18:20:32.610Z,89.62
2023-09-25T18:22:59.334Z,90.41
2023-09-25T18:25:26.480Z,90.42
2023-09-25T18:27:53.076Z,90.26
2023-09-25T18:30:19.770Z,91.17
2023-09-25T18:32:46.434Z,91.83
2023-09-25T18:35:13.040Z,93.25
2023-09-25T18:37:39.730Z,93.52
2023-09-25T18:40:07.128Z,94.04
2023-09-25T18:42:35.044Z,94.02
2023-09-25T18:45:01.748Z,93.39
2023-09-25T18:47:28.386Z,93.84
2023-09-25T18:49:56.846Z,94.48
2023-09-25T18:52:23.693Z,95.23
2023-09-25T18:54:50.331Z,95.24
2023-09-25T18:57:18.275Z,95.07
2023-09-25T18:59:45.004Z,95.52
2023-09-25T19:02:12.617Z,95.56
2023-09-25T19:04:41.028Z,95.56
2023-09-25T19:07:07.718Z,95.82
2023-09-25T19:09:34.332Z,95.64
2023-09-25T19:12:01.020Z,95.80
2023-09-25T19:14:27.771Z,96.04
2023-09-25T19:16:54.686Z,97.19
2023-09-25T19:19:21.545Z,98.38
2023-09-25T19:21:48.816Z,99.07
2023-09-25T19:24:15.907Z,98.95
2023-09-25T19:26:42.978Z,98.67
2023-09-25T19:29:09.521Z,98.80
2023-09-25T19:31:41.780Z,98.37
2023-09-25T19:34:11.691Z,98.77
2023-09-25T19:36:41.878Z,98.60
2023-09-25T19:39:09.176Z,98.50
2023-09-25T19:41:35.842Z,98.46
2023-09-25T19:44:02.574Z,99.05
2023-09-25T19:46:33.073Z,99.59
2023-09-25T19:49:00.650Z,99.32
2023-09-25T19:51:27.607Z,99.76
2023-09-25T19:53:54.159Z,100.00
2023-09-25T19:56:20.713Z,100.00
2023-09-25T19:58:47.258Z,100.00
2023-09-25T20:01:15.811Z,100.00
2023-09-25T20:03:45.686Z,100.00
2023-09-25T20:06:13.373Z,100.00
2023-09-25T20:08:39.974Z,100.00
2023-09-25T20:11:06.827Z,100.00
2023-09-25T20:13:33.471Z,100.00
2023-09-25T20:16:00.994Z,100.00
2023-09-25T20:18:29.028Z,100.00
2023-09-25T20:20:59.541Z,100.00
2023-09-25T20:23:27.207Z,100.00
2023-09-25T20:25:54.262Z,100.00
2023-09-25T20:28:21.407Z,100.00
2023-09-25T20:30:50.963Z,100.00
2023-09-25T20:33:20.701Z,100.00
2023-09-25T20:35:47.396Z,100.00
2023-09-25T20:38:14.086Z,100.00
2023-09-25T20:40:40.665Z,100.00
2023-09-25T20:43:07.379Z,100.00
2023-09-25T20:45:33.994Z,100.00
2023-09-25T20:48:00.713Z,100.00
2023-09-25T20:50:29.300Z,100.00
2023-09-25T20:52:59.353Z,100.00
2023-09-25T20:55:26.270Z,100.00
2023-09-25T20:57:54.016Z,100.00
2023-09-25T21:00:20.848Z,100.00
2023-09-25T21:02:47.620Z,100.00
2023-09-25T21:05:14.366Z,100.00
2023-09-25T21:07:40.933Z,100.00
2023-09-25T21:10:09.265Z,100.00
2023-09-25T21:12:36.179Z,100.00
2023-09-25T21:15:03.239Z,100.00
2023-09-25T21:17:29.933Z,100.00
2023-09-25T21:19:56.604Z,100.00
2023-09-25T21:22:23.268Z,100.00
2023-09-25T21:24:53.065Z,100.00
2023-09-25T21:27:20.003Z,100.00
2023-09-25T21:29:46.734Z,100.00
2023-09-25T21:32:14.700Z,100.00
2023-09-25T21:34:41.707Z,100.00
2023-09-25T21:37:08.714Z,100.00
2023-09-25T21:39:35.525Z,100.00
2023-09-25T21:42:03.163Z,100.00
2023-09-25T21:44:31.627Z,100.00
2023-09-25T21:46:58.762Z,100.00
2023-09-25T21:49:25.766Z,100.00
2023-09-25T21:51:52.354Z,100.00
2023-09-25T21:54:18.973Z,100.00
2023-09-25T21:56:45.534Z,100.00
2023-09-25T21:59:12.126Z,100.00
2023-09-25T22:01:38.903Z,100.00
2023-09-25T22:04:06.594Z,100.00
2023-09-25T22:06:33.444Z,100.00
2023-09-25T22:09:00.010Z,100.00
2023-09-25T22:11:26.948Z,100.00
2023-09-25T22:13:55.386Z,100.00
2023-09-25T22:16:22.945Z,100.00
2023-09-25T22:18:49.762Z,100.00
2023-09-25T22:21:16.428Z,100.00
2023-09-25T22:23:44.115Z,100.00
2023-09-25T22:26:11.462Z,100.00
2023-09-25T22:28:41.052Z,100.00
2023-09-25T22:31:18.701Z,100.00
2023-09-25T22:33:49.266Z,100.00
2023-09-25T22:36:16.838Z,100.00
2023-09-25T22:38:43.364Z,100.00
2023-09-25T22:41:10.006Z,100.00
2023-09-25T22:43:36.588Z,100.00
2023-09-25T22:46:03.340Z,100.00
2023-09-25T22:48:33.137Z,100.00
2023-09-25T22:50:59.804Z,100.00
2023-09-25T22:53:26.575Z,100.00
2023-09-25T22:55:54.322Z,100.00
2023-09-25T22:58:25.687Z,100.00
2023-09-25T23:00:53.710Z,100.00
2023-09-25T23:03:21.164Z,100.00
2023-09-25T23:05:48.031Z,100.00
2023-09-25T23:08:14.985Z,100.00
2023-09-25T23:10:41.843Z,100.00
2023-09-25T23:13:08.422Z,100.00
2023-09-25T23:15:35.089Z,100.00
2023-09-25T23:18:01.838Z,100.00
2023-09-25T23:20:28.594Z,100.00
2023-09-25T23:22:56.559Z,100.00
2023-09-25T23:25:26.026Z,100.00
2023-09-25T23:27:53.353Z,100.00
2023-09-25T23:30:20.742Z,100.00
2023-09-25T23:32:50.621Z,100.00
2023-09-25T23:35:18.385Z,100.00
2023-09-25T23:37:47.533Z,100.00
2023-09-25T23:40:19.948Z,100.00
2023-09-25T23:42:46.914Z,100.00
2023-09-25T23:45:15.018Z,100.00
2023-09-25T23:47:42.705Z,100.00
2023-09-25T23:50:11.564Z,100.00
2023-09-25T23:52:40.302Z,100.00
2023-09-25T23:55:08.638Z,100.00
2023-09-25T23:57:37.049Z,100.00
